createdAt,value
2023-04-28T00:02:18.875Z,96510.91
2023-04-28T00:05:16.098Z,96507.25
2023-04-28T00:08:13.037Z,96505.78
2023-04-28T00:11:13.019Z,96502.50
2023-04-28T00:14:09.851Z,96503.47
2023-04-28T00:17:06.954Z,96505.75
2023-04-28T00:20:04.331Z,96492.66
2023-04-28T00:23:01.167Z,96493.34
2023-04-28T00:25:58.035Z,96481.75
2023-04-28T00:28:54.886Z,96466.44
2023-04-28T00:31:51.797Z,96458.81
2023-04-28T00:34:48.828Z,96452.44
2023-04-28T00:37:45.782Z,96456.22
2023-04-28T00:40:42.692Z,96443.22
2023-04-28T00:43:49.968Z,96443.03
2023-04-28T00:46:47.821Z,96444.09
2023-04-28T00:49:45.525Z,96436.06
2023-04-28T00:52:43.454Z,96444.59
2023-04-28T00:55:40.765Z,96434.16
2023-04-28T00:58:37.890Z,96434.69
2023-04-28T01:01:36.796Z,96430.34
2023-04-28T01:04:34.693Z,96438.34
2023-04-28T01:07:31.607Z,96431.47
2023-04-28T01:10:28.438Z,96430.16
2023-04-28T01:13:25.449Z,96429.34
2023-04-28T01:16:22.323Z,96431.75
2023-04-28T01:19:23.493Z,96430.84
2023-04-28T01:22:20.421Z,96433.72
2023-04-28T01:25:17.261Z,96434.63
2023-04-28T01:28:14.124Z,96421.16
2023-04-28T01:31:11.018Z,96423.31
2023-04-28T01:34:08.031Z,96424.22
2023-04-28T01:37:04.901Z,96413.75
2023-04-28T01:40:01.716Z,96424.81
2023-04-28T01:42:58.547Z,96411.94
2023-04-28T01:45:55.484Z,96411.88
2023-04-28T01:48:52.444Z,96412.31
2023-04-28T01:51:49.410Z,96402.75
2023-04-28T01:54:46.245Z,96404.31
2023-04-28T01:57:43.305Z,96401.25
2023-04-28T02:00:40.107Z,96395.63
2023-04-28T02:03:37.092Z,96393.63
2023-04-28T02:06:34.077Z,96388.41
2023-04-28T02:09:31.051Z,96383.47
2023-04-28T02:12:27.889Z,96386.16
2023-04-28T02:15:24.708Z,96390.56
2023-04-28T02:18:21.562Z,96389.00
2023-04-28T02:21:18.400Z,96389.63
2023-04-28T02:24:15.447Z,96378.66
2023-04-28T02:27:13.439Z,96391.47
2023-04-28T02:30:10.714Z,96386.78
2023-04-28T02:33:07.554Z,96380.59
2023-04-28T02:36:06.181Z,96384.91
2023-04-28T02:39:03.015Z,96388.38
2023-04-28T02:41:59.841Z,96384.44
2023-04-28T02:44:56.801Z,96370.47
2023-04-28T02:47:53.686Z,96368.38
2023-04-28T02:50:51.151Z,96373.13
2023-04-28T02:53:47.966Z,96369.06
2023-04-28T02:56:44.772Z,96371.25
2023-04-28T02:59:41.753Z,96365.31
2023-04-28T03:02:38.730Z,96356.94
2023-04-28T03:05:36.345Z,96353.56
2023-04-28T03:08:33.235Z,96346.63
2023-04-28T03:11:30.052Z,96346.38
2023-04-28T03:14:26.893Z,96336.56
2023-04-28T03:17:23.779Z,96337.94
2023-04-28T03:20:20.739Z,96336.38
2023-04-28T03:23:17.557Z,96320.84
2023-04-28T03:26:14.902Z,96317.97
2023-04-28T03:29:11.726Z,96323.22
2023-04-28T03:32:08.646Z,96335.44
2023-04-28T03:35:06.136Z,96321.22
2023-04-28T03:38:03.007Z,96332.13
2023-04-28T03:40:59.834Z,96327.94
2023-04-28T03:43:56.830Z,96326.75
2023-04-28T03:46:53.770Z,96325.28
2023-04-28T03:49:50.646Z,96313.78
2023-04-28T03:52:47.517Z,96315.31
2023-04-28T03:55:44.805Z,96308.41
2023-04-28T03:58:41.788Z,96307.31
2023-04-28T04:01:38.987Z,96311.66
2023-04-28T04:04:35.982Z,96311.81
2023-04-28T04:07:32.908Z,96302.63
2023-04-28T04:10:29.754Z,96307.75
2023-04-28T04:13:26.704Z,96305.91
2023-04-28T04:16:23.654Z,96312.44
2023-04-28T04:19:20.517Z,96309.28
2023-04-28T04:22:17.378Z,96314.59
2023-04-28T04:25:14.317Z,96306.78
2023-04-28T04:28:11.316Z,96317.47
2023-04-28T04:31:08.491Z,96304.88
2023-04-28T04:34:05.460Z,96300.63
2023-04-28T04:37:02.418Z,96299.16
2023-04-28T04:39:59.243Z,96296.81
2023-04-28T04:42:56.470Z,96285.03
2023-04-28T04:45:53.313Z,96284.16
2023-04-28T04:48:50.126Z,96294.41
2023-04-28T04:51:46.948Z,96285.03
2023-04-28T04:54:43.849Z,96287.09
2023-04-28T04:57:40.680Z,96291.44
2023-04-28T05:00:37.813Z,96285.88
2023-04-28T05:03:34.745Z,96291.09
2023-04-28T05:06:31.801Z,96288.19
2023-04-28T05:09:30.453Z,96276.84
2023-04-28T05:12:27.482Z,96281.44
2023-04-28T05:15:24.371Z,96264.19
2023-04-28T05:18:21.539Z,96262.34
2023-04-28T05:21:18.368Z,96274.44
2023-04-28T05:24:15.659Z,96259.13
2023-04-28T05:27:12.684Z,96252.75
2023-04-28T05:30:10.832Z,96250.38
2023-04-28T05:33:07.875Z,96249.13
2023-04-28T05:36:05.372Z,96254.94
2023-04-28T05:39:02.463Z,96249.31
2023-04-28T05:41:59.300Z,96254.47
2023-04-28T05:44:56.143Z,96250.09
2023-04-28T05:47:53.062Z,96253.78
2023-04-28T05:50:49.866Z,96252.81
2023-04-28T05:53:48.787Z,96248.78
2023-04-28T05:56:45.759Z,96250.09
2023-04-28T05:59:42.688Z,96250.13
2023-04-28T06:02:39.741Z,96263.19
2023-04-28T06:05:37.510Z,96258.00
2023-04-28T06:08:34.671Z,96261.94
2023-04-28T06:11:31.666Z,96262.28
2023-04-28T06:14:28.522Z,96271.31
2023-04-28T06:17:25.449Z,96269.03
2023-04-28T06:20:22.342Z,96263.06
2023-04-28T06:23:19.168Z,96260.47
2023-04-28T06:26:18.075Z,96261.94
2023-04-28T06:29:15.259Z,96265.59
2023-04-28T06:32:12.128Z,96253.28
2023-04-28T06:35:09.132Z,96254.19
2023-04-28T06:38:07.405Z,96256.59
2023-04-28T06:41:04.222Z,96256.09
2023-04-28T06:44:01.033Z,96255.78
2023-04-28T06:46:58.045Z,96256.09
2023-04-28T06:49:55.249Z,96254.31
2023-04-28T06:52:52.176Z,96245.13
2023-04-28T06:55:48.982Z,96246.84
2023-04-28T06:58:45.848Z,96234.91
2023-04-28T07:01:42.950Z,96243.75
2023-04-28T07:04:39.812Z,96248.22
2023-04-28T07:07:38.949Z,96249.94
2023-04-28T07:10:35.909Z,96239.03
2023-04-28T07:13:33.511Z,96246.22
2023-04-28T07:16:30.527Z,96255.69
2023-04-28T07:19:27.353Z,96253.50
2023-04-28T07:22:24.273Z,96246.09
2023-04-28T07:25:21.550Z,96246.56
2023-04-28T07:28:18.470Z,96252.69
2023-04-28T07:31:15.347Z,96244.97
2023-04-28T07:34:12.140Z,96248.00
2023-04-28T07:37:09.744Z,96245.88
2023-04-28T07:40:07.241Z,96253.19
2023-04-28T07:43:04.127Z,96257.31
2023-04-28T07:46:01.007Z,96246.41
2023-04-28T07:48:57.881Z,96248.78
2023-04-28T07:51:55.709Z,96257.56
2023-04-28T07:54:52.505Z,96247.03
2023-04-28T07:57:49.599Z,96252.19
2023-04-28T08:00:46.617Z,96254.28
2023-04-28T08:03:43.736Z,96249.22
2023-04-28T08:06:41.025Z,96254.44
2023-04-28T08:09:37.930Z,96254.78
2023-04-28T08:12:34.761Z,96254.72
2023-04-28T08:15:31.884Z,96242.97
2023-04-28T08:18:29.397Z,96244.00
2023-04-28T08:21:26.978Z,96234.13
2023-04-28T08:24:23.825Z,96226.50
2023-04-28T08:27:20.767Z,96229.53
2023-04-28T08:30:17.582Z,96237.97
2023-04-28T08:33:14.742Z,96223.03
2023-04-28T08:36:18.094Z,96229.69
2023-04-28T08:39:15.009Z,96234.44
2023-04-28T08:42:12.106Z,96230.84
2023-04-28T08:45:14.511Z,96243.75
2023-04-28T08:48:22.863Z,96252.97
2023-04-28T08:51:40.902Z,96240.16
2023-04-28T08:54:43.022Z,96243.00
2023-04-28T08:57:51.736Z,96251.25
2023-04-28T09:00:48.562Z,96241.63
2023-04-28T09:03:47.684Z,96232.63
2023-04-28T09:06:46.136Z,96231.78
2023-04-28T09:09:45.194Z,96212.63
2023-04-28T09:12:42.014Z,96198.41
2023-04-28T09:15:41.282Z,96169.09
2023-04-28T09:18:38.144Z,96159.13
2023-04-28T09:21:57.034Z,96142.59
2023-04-28T09:24:55.530Z,96135.13
2023-04-28T09:27:52.950Z,96171.31
2023-04-28T09:30:49.772Z,96177.50
2023-04-28T09:34:00.164Z,96204.78
2023-04-28T09:36:57.077Z,96208.16
2023-04-28T09:39:55.130Z,96221.72
2023-04-28T09:42:52.189Z,96226.53
2023-04-28T09:45:49.025Z,96218.19
2023-04-28T09:48:46.004Z,96228.28
2023-04-28T09:51:42.854Z,96229.81
2023-04-28T09:54:39.727Z,96225.22
2023-04-28T09:57:37.098Z,96219.59
2023-04-28T10:00:34.961Z,96221.06
2023-04-28T10:03:32.017Z,96211.97
2023-04-28T10:06:30.176Z,96206.97
2023-04-28T10:09:28.918Z,96214.56
2023-04-28T10:12:25.874Z,96207.81
2023-04-28T10:15:23.550Z,96200.50
2023-04-28T10:18:23.142Z,96196.50
2023-04-28T10:21:23.491Z,96192.63
2023-04-28T10:24:31.194Z,96188.06
2023-04-28T10:27:31.440Z,96186.97
2023-04-28T10:30:29.581Z,96182.22
2023-04-28T10:33:27.462Z,96173.41
2023-04-28T10:36:51.106Z,96154.91
2023-04-28T10:40:33.159Z,96163.56
2023-04-28T10:43:32.796Z,96157.47
2023-04-28T10:47:06.925Z,96164.84
2023-04-28T10:50:08.664Z,96158.22
2023-04-28T10:53:05.528Z,96165.66
2023-04-28T10:56:16.834Z,96156.59
2023-04-28T10:59:28.292Z,96167.16
2023-04-28T11:02:43.874Z,96146.38
2023-04-28T11:06:26.138Z,96150.22
2023-04-28T11:09:42.988Z,96128.81
2023-04-28T11:13:28.163Z,96124.59
2023-04-28T11:16:26.135Z,96111.00
2023-04-28T11:19:28.713Z,96111.59
2023-04-28T11:22:25.542Z,96121.28
2023-04-28T11:25:23.116Z,96108.88
2023-04-28T11:28:20.909Z,96116.84
2023-04-28T11:31:20.657Z,96124.59
2023-04-28T11:34:22.196Z,96122.63
2023-04-28T11:37:21.167Z,96123.22
2023-04-28T11:40:18.736Z,96117.19
2023-04-28T11:43:15.605Z,96116.91
2023-04-28T11:46:21.583Z,96121.41
2023-04-28T11:49:19.501Z,96124.34
2023-04-28T11:52:16.497Z,96121.66
2023-04-28T11:55:17.188Z,96125.56
2023-04-28T11:58:23.572Z,96113.56
2023-04-28T12:01:20.432Z,96117.84
2023-04-28T12:04:38.339Z,96114.94
2023-04-28T12:07:45.572Z,96116.44
2023-04-28T12:10:42.721Z,96114.44
2023-04-28T12:13:40.296Z,96120.66
2023-04-28T12:16:44.150Z,96115.84
2023-04-28T12:19:46.906Z,96121.31
2023-04-28T12:22:52.560Z,96123.59
2023-04-28T12:25:49.372Z,96127.38
2023-04-28T12:28:46.294Z,96124.03
2023-04-28T12:31:53.110Z,96124.44
2023-04-28T12:34:51.373Z,96129.16
2023-04-28T12:37:49.261Z,96119.19
2023-04-28T12:40:46.694Z,96115.94
2023-04-28T12:43:44.787Z,96117.47
2023-04-28T12:46:42.098Z,96116.22
2023-04-28T12:49:39.392Z,96110.91
2023-04-28T12:52:37.583Z,96114.69
2023-04-28T12:55:34.637Z,96113.56
2023-04-28T12:58:31.546Z,96116.69
2023-04-28T13:01:28.643Z,96106.16
2023-04-28T13:04:26.015Z,96114.22
2023-04-28T13:07:22.963Z,96116.41
2023-04-28T13:10:21.433Z,96114.06
2023-04-28T13:13:18.302Z,96118.16
2023-04-28T13:16:15.195Z,96115.69
2023-04-28T13:19:13.975Z,96121.25
2023-04-28T13:22:12.298Z,96127.19
2023-04-28T13:25:10.084Z,96118.31
2023-04-28T13:28:07.001Z,96114.31
2023-04-28T13:31:03.818Z,96119.63
2023-04-28T13:34:05.255Z,96116.00
2023-04-28T13:37:02.153Z,96118.19
2023-04-28T13:39:59.491Z,96109.94
2023-04-28T13:42:56.374Z,96116.69
2023-04-28T13:45:53.450Z,96111.81
2023-04-28T13:48:50.573Z,96112.03
2023-04-28T13:51:47.442Z,96111.91
2023-04-28T13:54:44.637Z,96119.44
2023-04-28T13:57:41.841Z,96117.16
2023-04-28T14:00:39.229Z,96094.19
2023-04-28T14:03:36.226Z,96098.31
2023-04-28T14:06:34.748Z,96109.88
2023-04-28T14:09:32.538Z,96104.31
2023-04-28T14:12:29.424Z,96112.09
2023-04-28T14:15:26.321Z,96091.72
2023-04-28T14:18:23.224Z,96095.50
2023-04-28T14:21:20.050Z,96099.31
2023-04-28T14:24:16.960Z,96088.56
2023-04-28T14:27:15.180Z,96088.91
2023-04-28T14:30:12.293Z,96080.38
2023-04-28T14:33:09.214Z,96087.44
2023-04-28T14:36:06.129Z,96078.19
2023-04-28T14:39:02.982Z,96078.72
2023-04-28T14:41:59.830Z,96074.97
2023-04-28T14:44:57.246Z,96083.88
2023-04-28T14:47:54.150Z,96082.38
2023-04-28T14:50:51.620Z,96079.25
2023-04-28T14:53:49.172Z,96075.50
2023-04-28T14:56:46.031Z,96071.69
2023-04-28T14:59:42.875Z,96060.53
2023-04-28T15:02:39.888Z,96068.50
2023-04-28T15:05:36.805Z,96052.19
2023-04-28T15:08:33.690Z,96066.59
2023-04-28T15:11:31.336Z,96058.28
2023-04-28T15:14:28.885Z,96057.03
2023-04-28T15:17:25.837Z,96054.78
2023-04-28T15:20:22.753Z,96059.66
2023-04-28T15:23:20.288Z,96060.50
2023-04-28T15:26:17.128Z,96052.81
2023-04-28T15:29:14.014Z,96064.34
2023-04-28T15:32:10.859Z,96060.59
2023-04-28T15:35:08.124Z,96071.59
2023-04-28T15:38:05.199Z,96068.84
2023-04-28T15:41:02.324Z,96061.50
2023-04-28T15:44:00.520Z,96064.09
2023-04-28T15:46:57.361Z,96065.34
2023-04-28T15:49:54.166Z,96056.38
2023-04-28T15:52:51.174Z,96059.28
2023-04-28T15:55:48.436Z,96064.09
2023-04-28T15:58:45.470Z,96057.50
2023-04-28T16:01:42.530Z,96055.03
2023-04-28T16:04:39.725Z,96059.38
2023-04-28T16:07:40.955Z,96062.53
2023-04-28T16:10:41.147Z,96061.53
2023-04-28T16:13:38.030Z,96062.91
2023-04-28T16:16:35.607Z,96068.72
2023-04-28T16:19:32.686Z,96056.91
2023-04-28T16:22:29.767Z,96058.03
2023-04-28T16:25:26.649Z,96074.00
2023-04-28T16:28:23.967Z,96073.63
2023-04-28T16:31:20.854Z,96080.03
2023-04-28T16:34:19.293Z,96062.78
2023-04-28T16:37:16.492Z,96055.13
2023-04-28T16:40:14.979Z,96052.88
2023-04-28T16:43:11.837Z,96057.16
2023-04-28T16:46:09.832Z,96050.19
2023-04-28T16:49:06.725Z,96058.56
2023-04-28T16:52:04.676Z,96049.50
2023-04-28T16:55:01.538Z,96063.88
2023-04-28T16:57:58.418Z,96056.03
2023-04-28T17:00:55.347Z,96063.53
2023-04-28T17:03:52.514Z,96067.59
2023-04-28T17:06:50.790Z,96055.13
2023-04-28T17:09:47.656Z,96056.84
2023-04-28T17:12:45.588Z,96050.44
2023-04-28T17:15:42.635Z,96046.63
2023-04-28T17:18:41.269Z,96037.09
2023-04-28T17:21:38.424Z,96043.94
2023-04-28T17:24:35.545Z,96042.78
2023-04-28T17:27:32.391Z,96047.28
2023-04-28T17:30:29.628Z,96048.88
2023-04-28T17:33:26.607Z,96051.31
2023-04-28T17:36:25.801Z,96045.63
2023-04-28T17:39:22.750Z,96049.75
2023-04-28T17:42:19.565Z,96060.84
2023-04-28T17:45:16.802Z,96059.97
2023-04-28T17:48:13.734Z,96062.22
2023-04-28T17:51:10.632Z,96060.06
2023-04-28T17:54:09.615Z,96064.22
2023-04-28T17:57:06.615Z,96062.63
2023-04-28T18:00:03.656Z,96063.78
2023-04-28T18:03:02.548Z,96052.00
2023-04-28T18:05:59.478Z,96066.69
2023-04-28T18:08:56.310Z,96068.25
2023-04-28T18:11:54.165Z,96068.38
2023-04-28T18:14:51.643Z,96051.22
2023-04-28T18:17:49.482Z,96047.16
2023-04-28T18:20:47.951Z,96060.66
2023-04-28T18:23:46.633Z,96059.88
2023-04-28T18:26:43.470Z,96057.06
2023-04-28T18:29:40.558Z,96067.38
2023-04-28T18:32:37.678Z,96071.19
2023-04-28T18:35:38.150Z,96064.56
2023-04-28T18:38:36.505Z,96068.59
2023-04-28T18:41:34.502Z,96068.25
2023-04-28T18:44:31.573Z,96068.38
2023-04-28T18:47:28.805Z,96069.06
2023-04-28T18:50:25.783Z,96076.66
2023-04-28T18:53:22.655Z,96086.19
2023-04-28T18:56:21.036Z,96079.94
2023-04-28T18:59:17.847Z,96083.06
2023-04-28T19:02:16.303Z,96081.59
2023-04-28T19:05:13.649Z,96081.19
2023-04-28T19:08:12.037Z,96087.13
2023-04-28T19:11:09.724Z,96090.91
2023-04-28T19:14:06.624Z,96094.38
2023-04-28T19:17:03.797Z,96081.38
2023-04-28T19:20:00.805Z,96080.50
2023-04-28T19:23:01.315Z,96092.09
2023-04-28T19:25:59.936Z,96091.59
2023-04-28T19:28:56.904Z,96087.78
2023-04-28T19:31:54.468Z,96096.84
2023-04-28T19:34:51.335Z,96107.41
2023-04-28T19:37:49.791Z,96106.84
2023-04-28T19:40:46.993Z,96100.91
2023-04-28T19:43:43.886Z,96110.91
2023-04-28T19:46:40.737Z,96096.97
2023-04-28T19:49:37.964Z,96098.63
2023-04-28T19:52:34.836Z,96116.41
2023-04-28T19:55:31.890Z,96113.31
2023-04-28T19:58:28.844Z,96101.72
2023-04-28T20:01:25.705Z,96105.66
2023-04-28T20:04:22.733Z,96105.06
2023-04-28T20:07:19.777Z,96105.44
2023-04-28T20:10:17.812Z,96122.06
2023-04-28T20:13:15.303Z,96117.41
2023-04-28T20:16:12.167Z,96115.81
2023-04-28T20:19:09.017Z,96116.81
2023-04-28T20:22:08.377Z,96113.06
2023-04-28T20:25:06.104Z,96124.72
2023-04-28T20:28:02.939Z,96116.81
2023-04-28T20:30:59.795Z,96107.28
2023-04-28T20:33:56.672Z,96096.06
2023-04-28T20:36:54.412Z,96099.59
2023-04-28T20:39:51.444Z,96101.50
2023-04-28T20:42:48.614Z,96100.06
2023-04-28T20:45:45.513Z,96101.38
2023-04-28T20:48:42.388Z,96105.69
2023-04-28T20:51:45.222Z,96111.16
2023-04-28T20:54:43.659Z,96120.53
2023-04-28T20:57:40.486Z,96114.81
2023-04-28T21:00:40.367Z,96114.94
2023-04-28T21:03:37.432Z,96115.09
2023-04-28T21:06:34.325Z,96115.47
2023-04-28T21:09:31.201Z,96111.38
2023-04-28T21:12:28.088Z,96100.19
2023-04-28T21:15:25.759Z,96102.47
2023-04-28T21:18:22.587Z,96087.56
2023-04-28T21:21:19.436Z,96085.88
2023-04-28T21:24:16.427Z,96079.63
2023-04-28T21:27:13.249Z,96086.91
2023-04-28T21:30:11.770Z,96082.03
2023-04-28T21:33:08.719Z,96077.03
2023-04-28T21:36:09.966Z,96090.53
2023-04-28T21:39:07.626Z,96075.06
2023-04-28T21:42:04.820Z,96071.38
2023-04-28T21:45:02.091Z,96070.34
2023-04-28T21:48:00.228Z,96073.00
2023-04-28T21:50:57.406Z,96070.88
2023-04-28T21:53:54.399Z,96070.16
2023-04-28T21:56:51.509Z,96068.16
2023-04-28T21:59:48.699Z,96068.84
2023-04-28T22:02:46.156Z,96063.66
2023-04-28T22:05:44.941Z,96067.72
2023-04-28T22:08:41.811Z,96061.97
2023-04-28T22:11:38.664Z,96069.38
2023-04-28T22:14:40.852Z,96070.50
2023-04-28T22:17:38.136Z,96077.44
2023-04-28T22:20:35.815Z,96076.50
2023-04-28T22:23:32.692Z,96080.81
2023-04-28T22:26:29.562Z,96074.56
2023-04-28T22:29:26.435Z,96094.50
2023-04-28T22:32:23.420Z,96097.53
2023-04-28T22:35:20.249Z,96088.00
2023-04-28T22:38:17.233Z,96085.88
2023-04-28T22:41:14.056Z,96091.59
2023-04-28T22:44:10.890Z,96086.78
2023-04-28T22:47:07.754Z,96084.53
2023-04-28T22:50:06.139Z,96077.69
2023-04-28T22:53:03.873Z,96083.38
2023-04-28T22:56:02.970Z,96073.44
2023-04-28T22:59:00.405Z,96083.84
2023-04-28T23:01:57.366Z,96078.59
2023-04-28T23:04:54.378Z,96080.63
2023-04-28T23:07:51.275Z,96079.47
2023-04-28T23:10:48.095Z,96076.56
2023-04-28T23:13:44.917Z,96077.69
2023-04-28T23:16:42.078Z,96070.84
2023-04-28T23:19:39.610Z,96074.19
2023-04-28T23:22:36.597Z,96074.06
2023-04-28T23:25:33.411Z,96072.69
2023-04-28T23:28:30.246Z,96067.13
2023-04-28T23:31:27.111Z,96065.00
2023-04-28T23:34:24.707Z,96067.03
2023-04-28T23:37:21.642Z,96051.00
2023-04-28T23:40:18.490Z,96060.84
2023-04-28T23:43:15.312Z,96057.38
2023-04-28T23:46:12.203Z,96057.72
2023-04-28T23:49:09.180Z,96045.72
2023-04-28T23:52:07.580Z,96047.53
2023-04-28T23:55:05.070Z,96038.88
2023-04-28T23:58:01.907Z,96044.25
